sensor_id;sensor_type;location;lat;lon;timestamp;P1;durP1;ratioP1;P2;durP2;ratioP2
10041;SDS011;5061;49.068;12.058;2022-12-17T00:00:45;40.87;;;17.63;;
10041;SDS011;5061;49.068;12.058;2022-12-17T00:04:24;42.50;;;19.90;;
10041;SDS011;5061;49.068;12.058;2022-12-17T00:08:03;45.37;;;17.53;;
10041;SDS011;5061;49.068;12.058;2022-12-17T00:11:42;35.43;;;15.63;;
10041;SDS011;5061;49.068;12.058;2022-12-17T00:15:21;41.90;;;17.70;;
10041;SDS011;5061;49.068;12.058;2022-12-17T00:19:01;36.60;;;17.07;;
10041;SDS011;5061;49.068;12.058;2022-12-17T00:22:40;40.90;;;17.90;;
10041;SDS011;5061;49.068;12.058;2022-12-17T00:26:19;39.87;;;16.90;;
10041;SDS011;5061;49.068;12.058;2022-12-17T00:30:01;34.57;;;16.60;;
10041;SDS011;5061;49.068;12.058;2022-12-17T00:33:41;38.20;;;18.17;;
10041;SDS011;5061;49.068;12.058;2022-12-17T00:37:20;35.40;;;17.03;;
10041;SDS011;5061;49.068;12.058;2022-12-17T00:41:00;37.77;;;17.50;;
10041;SDS011;5061;49.068;12.058;2022-12-17T00:44:39;42.57;;;17.93;;
10041;SDS011;5061;49.068;12.058;2022-12-17T00:48:19;47.43;;;18.43;;
10041;SDS011;5061;49.068;12.058;2022-12-17T00:52:04;44.53;;;17.63;;
10041;SDS011;5061;49.068;12.058;2022-12-17T00:55:42;40.23;;;18.20;;
10041;SDS011;5061;49.068;12.058;2022-12-17T00:59:22;31.87;;;16.07;;
10041;SDS011;5061;49.068;12.058;2022-12-17T01:03:05;34.03;;;16.30;;
10041;SDS011;5061;49.068;12.058;2022-12-17T01:06:45;37.30;;;15.90;;
10041;SDS011;5061;49.068;12.058;2022-12-17T01:10:25;33.30;;;16.47;;
10041;SDS011;5061;49.068;12.058;2022-12-17T01:14:04;41.23;;;19.00;;
10041;SDS011;5061;49.068;12.058;2022-12-17T01:17:47;37.80;;;18.20;;
10041;SDS011;5061;49.068;12.058;2022-12-17T01:21:29;43.50;;;19.27;;
10041;SDS011;5061;49.068;12.058;2022-12-17T01:25:08;42.30;;;18.50;;
10041;SDS011;5061;49.068;12.058;2022-12-17T01:28:47;43.00;;;18.13;;
10041;SDS011;5061;49.068;12.058;2022-12-17T01:32:26;39.53;;;18.50;;
10041;SDS011;5061;49.068;12.058;2022-12-17T01:36:05;35.70;;;16.73;;
10041;SDS011;5061;49.068;12.058;2022-12-17T01:39:44;38.80;;;16.83;;
10041;SDS011;5061;49.068;12.058;2022-12-17T01:43:33;40.87;;;17.93;;
10041;SDS011;5061;49.068;12.058;2022-12-17T01:47:14;38.93;;;17.07;;
10041;SDS011;5061;49.068;12.058;2022-12-17T01:50:54;44.00;;;17.73;;
10041;SDS011;5061;49.068;12.058;2022-12-17T01:54:36;46.60;;;18.93;;
10041;SDS011;5061;49.068;12.058;2022-12-17T01:58:15;40.63;;;16.53;;
10041;SDS011;5061;49.068;12.058;2022-12-17T02:01:54;45.50;;;18.87;;
10041;SDS011;5061;49.068;12.058;2022-12-17T02:05:40;45.90;;;18.77;;
10041;SDS011;5061;49.068;12.058;2022-12-17T02:09:28;42.03;;;18.03;;
10041;SDS011;5061;49.068;12.058;2022-12-17T02:13:34;46.53;;;19.40;;
10041;SDS011;5061;49.068;12.058;2022-12-17T02:17:18;40.73;;;19.53;;
10041;SDS011;5061;49.068;12.058;2022-12-17T02:21:01;33.63;;;17.20;;
10041;SDS011;5061;49.068;12.058;2022-12-17T02:24:50;41.30;;;17.27;;
10041;SDS011;5061;49.068;12.058;2022-12-17T02:28:35;44.97;;;19.30;;
10041;SDS011;5061;49.068;12.058;2022-12-17T02:32:18;45.10;;;17.97;;
10041;SDS011;5061;49.068;12.058;2022-12-17T02:36:01;41.13;;;18.83;;
10041;SDS011;5061;49.068;12.058;2022-12-17T02:39:43;42.83;;;18.80;;
10041;SDS011;5061;49.068;12.058;2022-12-17T02:43:22;39.43;;;17.30;;
10041;SDS011;5061;49.068;12.058;2022-12-17T02:47:05;36.07;;;16.70;;
10041;SDS011;5061;49.068;12.058;2022-12-17T02:50:46;43.77;;;17.53;;
10041;SDS011;5061;49.068;12.058;2022-12-17T02:54:29;39.80;;;15.77;;
10041;SDS011;5061;49.068;12.058;2022-12-17T02:58:10;32.97;;;15.27;;
10041;SDS011;5061;49.068;12.058;2022-12-17T03:01:49;34.07;;;16.10;;
10041;SDS011;5061;49.068;12.058;2022-12-17T03:05:28;34.87;;;15.73;;
10041;SDS011;5061;49.068;12.058;2022-12-17T03:09:07;37.97;;;16.80;;
10041;SDS011;5061;49.068;12.058;2022-12-17T03:12:46;40.30;;;16.33;;
10041;SDS011;5061;49.068;12.058;2022-12-17T03:16:25;38.33;;;17.30;;
10041;SDS011;5061;49.068;12.058;2022-12-17T03:20:05;38.77;;;16.60;;
10041;SDS011;5061;49.068;12.058;2022-12-17T03:23:44;37.33;;;15.90;;
10041;SDS011;5061;49.068;12.058;2022-12-17T03:27:23;39.53;;;15.87;;
10041;SDS011;5061;49.068;12.058;2022-12-17T03:31:03;32.53;;;16.00;;
10041;SDS011;5061;49.068;12.058;2022-12-17T03:34:42;44.53;;;16.50;;
10041;SDS011;5061;49.068;12.058;2022-12-17T03:38:21;33.73;;;16.13;;
10041;SDS011;5061;49.068;12.058;2022-12-17T03:42:00;39.00;;;14.90;;
10041;SDS011;5061;49.068;12.058;2022-12-17T03:45:39;40.23;;;16.87;;
10041;SDS011;5061;49.068;12.058;2022-12-17T03:49:18;39.13;;;15.10;;
10041;SDS011;5061;49.068;12.058;2022-12-17T03:52:58;31.67;;;14.77;;
10041;SDS011;5061;49.068;12.058;2022-12-17T03:56:38;36.83;;;16.07;;
10041;SDS011;5061;49.068;12.058;2022-12-17T04:00:17;35.73;;;14.93;;
10041;SDS011;5061;49.068;12.058;2022-12-17T04:03:56;32.27;;;13.77;;
10041;SDS011;5061;49.068;12.058;2022-12-17T04:07:35;31.30;;;14.00;;
10041;SDS011;5061;49.068;12.058;2022-12-17T04:11:14;32.63;;;15.90;;
10041;SDS011;5061;49.068;12.058;2022-12-17T04:14:53;40.60;;;16.53;;
10041;SDS011;5061;49.068;12.058;2022-12-17T04:18:32;33.03;;;16.37;;
10041;SDS011;5061;49.068;12.058;2022-12-17T04:22:11;33.77;;;15.10;;
10041;SDS011;5061;49.068;12.058;2022-12-17T04:25:50;35.87;;;16.63;;
10041;SDS011;5061;49.068;12.058;2022-12-17T04:29:29;35.50;;;16.33;;
10041;SDS011;5061;49.068;12.058;2022-12-17T04:33:08;34.40;;;14.63;;
10041;SDS011;5061;49.068;12.058;2022-12-17T04:36:48;36.63;;;16.37;;
10041;SDS011;5061;49.068;12.058;2022-12-17T04:40:27;37.57;;;14.77;;
10041;SDS011;5061;49.068;12.058;2022-12-17T04:44:06;38.33;;;16.53;;
10041;SDS011;5061;49.068;12.058;2022-12-17T04:47:45;40.30;;;15.33;;
10041;SDS011;5061;49.068;12.058;2022-12-17T04:51:24;32.80;;;13.63;;
10041;SDS011;5061;49.068;12.058;2022-12-17T04:55:03;34.93;;;15.10;;
10041;SDS011;5061;49.068;12.058;2022-12-17T04:58:43;41.13;;;16.57;;
10041;SDS011;5061;49.068;12.058;2022-12-17T05:02:24;35.83;;;14.77;;
10041;SDS011;5061;49.068;12.058;2022-12-17T05:06:03;38.20;;;15.03;;
10041;SDS011;5061;49.068;12.058;2022-12-17T05:09:43;37.73;;;13.57;;
10041;SDS011;5061;49.068;12.058;2022-12-17T05:13:22;30.70;;;14.40;;
10041;SDS011;5061;49.068;12.058;2022-12-17T05:17:01;32.37;;;15.57;;
10041;SDS011;5061;49.068;12.058;2022-12-17T05:20:57;26.33;;;12.80;;
10041;SDS011;5061;49.068;12.058;2022-12-17T05:24:36;31.27;;;14.27;;
10041;SDS011;5061;49.068;12.058;2022-12-17T05:28:15;31.30;;;13.20;;
10041;SDS011;5061;49.068;12.058;2022-12-17T05:31:54;30.90;;;13.70;;
10041;SDS011;5061;49.068;12.058;2022-12-17T05:35:33;36.07;;;14.90;;
10041;SDS011;5061;49.068;12.058;2022-12-17T05:39:20;35.83;;;14.47;;
10041;SDS011;5061;49.068;12.058;2022-12-17T05:43:04;29.90;;;14.43;;
10041;SDS011;5061;49.068;12.058;2022-12-17T05:46:44;34.53;;;15.23;;
10041;SDS011;5061;49.068;12.058;2022-12-17T05:50:24;35.10;;;15.10;;
10041;SDS011;5061;49.068;12.058;2022-12-17T05:54:03;34.97;;;13.93;;
10041;SDS011;5061;49.068;12.058;2022-12-17T05:57:42;32.00;;;12.93;;
10041;SDS011;5061;49.068;12.058;2022-12-17T06:01:21;34.27;;;15.13;;
10041;SDS011;5061;49.068;12.058;2022-12-17T06:05:01;31.47;;;15.47;;
10041;SDS011;5061;49.068;12.058;2022-12-17T06:08:44;35.73;;;15.40;;
10041;SDS011;5061;49.068;12.058;2022-12-17T06:12:24;33.13;;;14.50;;
10041;SDS011;5061;49.068;12.058;2022-12-17T06:16:03;32.27;;;13.37;;
10041;SDS011;5061;49.068;12.058;2022-12-17T06:19:42;39.20;;;15.10;;
10041;SDS011;5061;49.068;12.058;2022-12-17T06:23:21;40.87;;;14.90;;
10041;SDS011;5061;49.068;12.058;2022-12-17T06:27:00;32.90;;;14.47;;
10041;SDS011;5061;49.068;12.058;2022-12-17T06:30:39;34.17;;;15.33;;
10041;SDS011;5061;49.068;12.058;2022-12-17T06:34:18;34.60;;;14.80;;
10041;SDS011;5061;49.068;12.058;2022-12-17T06:38:02;34.30;;;14.17;;
10041;SDS011;5061;49.068;12.058;2022-12-17T06:41:42;40.57;;;15.23;;
10041;SDS011;5061;49.068;12.058;2022-12-17T06:45:22;35.90;;;16.47;;
10041;SDS011;5061;49.068;12.058;2022-12-17T06:49:01;40.27;;;16.77;;
10041;SDS011;5061;49.068;12.058;2022-12-17T06:52:40;39.30;;;16.40;;
10041;SDS011;5061;49.068;12.058;2022-12-17T06:56:19;37.63;;;16.13;;
10041;SDS011;5061;49.068;12.058;2022-12-17T06:59:58;38.83;;;13.30;;
10041;SDS011;5061;49.068;12.058;2022-12-17T07:03:44;37.07;;;15.27;;
10041;SDS011;5061;49.068;12.058;2022-12-17T07:07:24;34.20;;;15.10;;
10041;SDS011;5061;49.068;12.058;2022-12-17T07:11:03;35.63;;;15.00;;
10041;SDS011;5061;49.068;12.058;2022-12-17T07:14:42;35.60;;;16.03;;
10041;SDS011;5061;49.068;12.058;2022-12-17T07:18:21;47.97;;;16.07;;
10041;SDS011;5061;49.068;12.058;2022-12-17T07:22:00;35.80;;;14.60;;
10041;SDS011;5061;49.068;12.058;2022-12-17T07:25:39;38.57;;;16.40;;
10041;SDS011;5061;49.068;12.058;2022-12-17T07:29:18;43.27;;;16.33;;
10041;SDS011;5061;49.068;12.058;2022-12-17T07:32:59;34.50;;;15.27;;
10041;SDS011;5061;49.068;12.058;2022-12-17T07:36:39;35.63;;;15.47;;
10041;SDS011;5061;49.068;12.058;2022-12-17T07:40:18;36.20;;;16.03;;
10041;SDS011;5061;49.068;12.058;2022-12-17T07:43:57;40.67;;;16.97;;
10041;SDS011;5061;49.068;12.058;2022-12-17T07:47:36;37.63;;;16.07;;
10041;SDS011;5061;49.068;12.058;2022-12-17T07:51:15;39.30;;;15.67;;
10041;SDS011;5061;49.068;12.058;2022-12-17T07:54:54;41.77;;;17.27;;
10041;SDS011;5061;49.068;12.058;2022-12-17T07:58:33;35.87;;;16.10;;
10041;SDS011;5061;49.068;12.058;2022-12-17T08:02:13;43.67;;;17.50;;
10041;SDS011;5061;49.068;12.058;2022-12-17T08:05:52;35.60;;;15.50;;
10041;SDS011;5061;49.068;12.058;2022-12-17T08:09:35;40.37;;;17.97;;
10041;SDS011;5061;49.068;12.058;2022-12-17T08:13:14;36.43;;;15.30;;
10041;SDS011;5061;49.068;12.058;2022-12-17T08:16:53;40.63;;;16.80;;
10041;SDS011;5061;49.068;12.058;2022-12-17T08:20:32;32.70;;;16.03;;
10041;SDS011;5061;49.068;12.058;2022-12-17T08:24:12;41.47;;;15.57;;
10041;SDS011;5061;49.068;12.058;2022-12-17T08:27:54;31.80;;;14.70;;
10041;SDS011;5061;49.068;12.058;2022-12-17T08:31:35;33.60;;;13.90;;
10041;SDS011;5061;49.068;12.058;2022-12-17T08:35:14;32.33;;;14.17;;
10041;SDS011;5061;49.068;12.058;2022-12-17T08:42:43;32.00;;;13.30;;
10041;SDS011;5061;49.068;12.058;2022-12-17T08:46:25;37.10;;;14.10;;
10041;SDS011;5061;49.068;12.058;2022-12-17T08:50:04;38.47;;;15.20;;
10041;SDS011;5061;49.068;12.058;2022-12-17T08:53:44;32.60;;;15.03;;
10041;SDS011;5061;49.068;12.058;2022-12-17T08:57:29;37.23;;;15.43;;
10041;SDS011;5061;49.068;12.058;2022-12-17T09:01:27;34.53;;;14.17;;
10041;SDS011;5061;49.068;12.058;2022-12-17T09:09:36;42.20;;;16.20;;
10041;SDS011;5061;49.068;12.058;2022-12-17T09:13:19;38.37;;;15.70;;
10041;SDS011;5061;49.068;12.058;2022-12-17T09:16:58;37.27;;;17.07;;
10041;SDS011;5061;49.068;12.058;2022-12-17T09:20:37;34.37;;;14.63;;
10041;SDS011;5061;49.068;12.058;2022-12-17T09:24:18;38.13;;;16.60;;
10041;SDS011;5061;49.068;12.058;2022-12-17T09:28:01;37.53;;;16.93;;
10041;SDS011;5061;49.068;12.058;2022-12-17T09:31:41;31.70;;;15.13;;
10041;SDS011;5061;49.068;12.058;2022-12-17T09:35:20;35.53;;;14.27;;
10041;SDS011;5061;49.068;12.058;2022-12-17T09:38:59;30.50;;;12.90;;
10041;SDS011;5061;49.068;12.058;2022-12-17T09:42:45;27.57;;;13.97;;
10041;SDS011;5061;49.068;12.058;2022-12-17T09:46:33;32.03;;;14.97;;
10041;SDS011;5061;49.068;12.058;2022-12-17T09:50:37;29.80;;;14.10;;
10041;SDS011;5061;49.068;12.058;2022-12-17T09:54:27;33.00;;;13.83;;
10041;SDS011;5061;49.068;12.058;2022-12-17T09:58:24;30.37;;;14.03;;
10041;SDS011;5061;49.068;12.058;2022-12-17T10:02:17;39.27;;;15.60;;
10041;SDS011;5061;49.068;12.058;2022-12-17T10:05:57;32.73;;;15.10;;
10041;SDS011;5061;49.068;12.058;2022-12-17T10:09:39;34.43;;;14.83;;
10041;SDS011;5061;49.068;12.058;2022-12-17T10:13:21;34.10;;;14.33;;
10041;SDS011;5061;49.068;12.058;2022-12-17T10:17:01;33.43;;;13.97;;
10041;SDS011;5061;49.068;12.058;2022-12-17T10:21:05;25.97;;;12.90;;
10041;SDS011;5061;49.068;12.058;2022-12-17T10:24:45;29.90;;;14.00;;
10041;SDS011;5061;49.068;12.058;2022-12-17T10:28:24;37.77;;;15.87;;
10041;SDS011;5061;49.068;12.058;2022-12-17T10:35:56;28.93;;;12.50;;
10041;SDS011;5061;49.068;12.058;2022-12-17T10:39:35;25.07;;;12.67;;
10041;SDS011;5061;49.068;12.058;2022-12-17T10:43:37;32.37;;;13.93;;
10041;SDS011;5061;49.068;12.058;2022-12-17T10:47:18;30.90;;;13.47;;
10041;SDS011;5061;49.068;12.058;2022-12-17T10:51:03;34.03;;;15.23;;
10041;SDS011;5061;49.068;12.058;2022-12-17T10:54:53;26.90;;;12.93;;
10041;SDS011;5061;49.068;12.058;2022-12-17T10:58:34;26.00;;;12.20;;
10041;SDS011;5061;49.068;12.058;2022-12-17T11:02:25;23.60;;;12.23;;
10041;SDS011;5061;49.068;12.058;2022-12-17T11:06:06;28.03;;;12.10;;
10041;SDS011;5061;49.068;12.058;2022-12-17T11:09:47;30.20;;;12.97;;
10041;SDS011;5061;49.068;12.058;2022-12-17T11:13:34;20.93;;;10.30;;
10041;SDS011;5061;49.068;12.058;2022-12-17T11:17:23;23.60;;;11.97;;
10041;SDS011;5061;49.068;12.058;2022-12-17T11:21:11;23.00;;;11.43;;
10041;SDS011;5061;49.068;12.058;2022-12-17T11:29:14;25.40;;;10.90;;
10041;SDS011;5061;49.068;12.058;2022-12-17T11:36:50;25.70;;;11.37;;
10041;SDS011;5061;49.068;12.058;2022-12-17T11:40:54;27.20;;;12.17;;
10041;SDS011;5061;49.068;12.058;2022-12-17T11:48:47;18.27;;;8.50;;
10041;SDS011;5061;49.068;12.058;2022-12-17T11:56:26;23.27;;;10.53;;
10041;SDS011;5061;49.068;12.058;2022-12-17T12:00:17;22.33;;;10.77;;
10041;SDS011;5061;49.068;12.058;2022-12-17T12:04:01;23.70;;;9.47;;
10041;SDS011;5061;49.068;12.058;2022-12-17T12:11:47;19.87;;;9.30;;
10041;SDS011;5061;49.068;12.058;2022-12-17T12:16:03;19.17;;;9.00;;
10041;SDS011;5061;49.068;12.058;2022-12-17T12:23:41;17.10;;;8.60;;
10041;SDS011;5061;49.068;12.058;2022-12-17T12:35:20;15.50;;;8.13;;
10041;SDS011;5061;49.068;12.058;2022-12-17T12:39:02;17.73;;;7.90;;
10041;SDS011;5061;49.068;12.058;2022-12-17T12:42:50;15.20;;;7.30;;
10041;SDS011;5061;49.068;12.058;2022-12-17T12:46:37;18.80;;;8.50;;
10041;SDS011;5061;49.068;12.058;2022-12-17T12:50:40;17.50;;;8.23;;
10041;SDS011;5061;49.068;12.058;2022-12-17T12:54:29;15.43;;;8.10;;
10041;SDS011;5061;49.068;12.058;2022-12-17T12:58:30;20.07;;;9.20;;
10041;SDS011;5061;49.068;12.058;2022-12-17T13:05:56;17.07;;;8.00;;
10041;SDS011;5061;49.068;12.058;2022-12-17T13:12:44;19.00;;;9.03;;
10041;SDS011;5061;49.068;12.058;2022-12-17T13:20:20;14.70;;;8.00;;
10041;SDS011;5061;49.068;12.058;2022-12-17T13:23:46;17.00;;;8.03;;
10041;SDS011;5061;49.068;12.058;2022-12-17T13:27:26;14.77;;;8.07;;
10041;SDS011;5061;49.068;12.058;2022-12-17T13:30:58;16.57;;;7.90;;
10041;SDS011;5061;49.068;12.058;2022-12-17T13:41:40;16.73;;;7.63;;
10041;SDS011;5061;49.068;12.058;2022-12-17T13:45:00;16.77;;;6.80;;
10041;SDS011;5061;49.068;12.058;2022-12-17T13:48:23;19.80;;;9.10;;
10041;SDS011;5061;49.068;12.058;2022-12-17T13:51:45;21.50;;;10.20;;
10041;SDS011;5061;49.068;12.058;2022-12-17T13:55:08;17.70;;;8.70;;
10041;SDS011;5061;49.068;12.058;2022-12-17T13:58:36;15.90;;;8.07;;
10041;SDS011;5061;49.068;12.058;2022-12-17T14:01:56;15.00;;;7.67;;
10041;SDS011;5061;49.068;12.058;2022-12-17T14:05:28;11.20;;;5.60;;
10041;SDS011;5061;49.068;12.058;2022-12-17T14:08:52;13.33;;;6.67;;
10041;SDS011;5061;49.068;12.058;2022-12-17T14:12:15;14.00;;;7.30;;
10041;SDS011;5061;49.068;12.058;2022-12-17T14:15:49;12.27;;;6.53;;
10041;SDS011;5061;49.068;12.058;2022-12-17T14:19:11;10.70;;;5.70;;
10041;SDS011;5061;49.068;12.058;2022-12-17T14:22:33;12.20;;;6.67;;
10041;SDS011;5061;49.068;12.058;2022-12-17T14:25:56;12.53;;;6.57;;
10041;SDS011;5061;49.068;12.058;2022-12-17T14:29:21;13.20;;;6.20;;
10041;SDS011;5061;49.068;12.058;2022-12-17T14:32:43;11.27;;;5.97;;
10041;SDS011;5061;49.068;12.058;2022-12-17T14:36:08;12.97;;;6.67;;
10041;SDS011;5061;49.068;12.058;2022-12-17T14:39:34;10.03;;;5.60;;
10041;SDS011;5061;49.068;12.058;2022-12-17T14:42:58;10.10;;;5.20;;
10041;SDS011;5061;49.068;12.058;2022-12-17T14:46:20;12.07;;;6.53;;
10041;SDS011;5061;49.068;12.058;2022-12-17T14:53:24;17.33;;;7.63;;
10041;SDS011;5061;49.068;12.058;2022-12-17T14:56:47;11.57;;;6.37;;
10041;SDS011;5061;49.068;12.058;2022-12-17T15:00:09;14.60;;;7.07;;
10041;SDS011;5061;49.068;12.058;2022-12-17T15:03:33;13.30;;;7.30;;
10041;SDS011;5061;49.068;12.058;2022-12-17T15:06:58;21.27;;;10.60;;
10041;SDS011;5061;49.068;12.058;2022-12-17T15:10:20;22.07;;;10.87;;
10041;SDS011;5061;49.068;12.058;2022-12-17T15:13:41;26.30;;;12.63;;
10041;SDS011;5061;49.068;12.058;2022-12-17T15:17:01;31.70;;;12.10;;
10041;SDS011;5061;49.068;12.058;2022-12-17T15:20:22;25.37;;;11.73;;
10041;SDS011;5061;49.068;12.058;2022-12-17T15:23:43;23.90;;;11.27;;
10041;SDS011;5061;49.068;12.058;2022-12-17T15:27:05;28.27;;;12.67;;
10041;SDS011;5061;49.068;12.058;2022-12-17T15:30:27;28.43;;;11.70;;
10041;SDS011;5061;49.068;12.058;2022-12-17T15:33:48;25.30;;;11.53;;
10041;SDS011;5061;49.068;12.058;2022-12-17T15:37:08;24.03;;;10.13;;
10041;SDS011;5061;49.068;12.058;2022-12-17T15:40:32;21.40;;;9.90;;
10041;SDS011;5061;49.068;12.058;2022-12-17T15:43:55;20.83;;;9.00;;
10041;SDS011;5061;49.068;12.058;2022-12-17T15:47:15;20.70;;;9.67;;
10041;SDS011;5061;49.068;12.058;2022-12-17T15:50:36;19.43;;;9.87;;
10041;SDS011;5061;49.068;12.058;2022-12-17T15:53:57;20.07;;;9.13;;
10041;SDS011;5061;49.068;12.058;2022-12-17T15:57:18;15.17;;;6.90;;
10041;SDS011;5061;49.068;12.058;2022-12-17T16:00:38;12.67;;;7.57;;
10041;SDS011;5061;49.068;12.058;2022-12-17T16:03:59;14.60;;;7.30;;
10041;SDS011;5061;49.068;12.058;2022-12-17T16:07:19;14.37;;;7.67;;
10041;SDS011;5061;49.068;12.058;2022-12-17T16:10:40;14.90;;;7.10;;
10041;SDS011;5061;49.068;12.058;2022-12-17T16:14:01;14.47;;;6.47;;
10041;SDS011;5061;49.068;12.058;2022-12-17T16:17:21;13.00;;;7.40;;
10041;SDS011;5061;49.068;12.058;2022-12-17T16:20:42;14.53;;;6.00;;
10041;SDS011;5061;49.068;12.058;2022-12-17T16:24:03;17.93;;;7.50;;
10041;SDS011;5061;49.068;12.058;2022-12-17T16:27:24;15.23;;;7.13;;
10041;SDS011;5061;49.068;12.058;2022-12-17T16:30:55;16.13;;;7.33;;
10041;SDS011;5061;49.068;12.058;2022-12-17T16:34:20;20.30;;;9.57;;
10041;SDS011;5061;49.068;12.058;2022-12-17T16:37:41;18.97;;;8.30;;
10041;SDS011;5061;49.068;12.058;2022-12-17T16:41:01;12.93;;;7.00;;
10041;SDS011;5061;49.068;12.058;2022-12-17T16:44:22;18.10;;;8.40;;
10041;SDS011;5061;49.068;12.058;2022-12-17T16:47:43;19.83;;;9.20;;
10041;SDS011;5061;49.068;12.058;2022-12-17T16:51:13;17.67;;;9.00;;
10041;SDS011;5061;49.068;12.058;2022-12-17T16:54:39;19.27;;;9.77;;
10041;SDS011;5061;49.068;12.058;2022-12-17T16:57:59;18.70;;;9.87;;
10041;SDS011;5061;49.068;12.058;2022-12-17T17:01:21;20.30;;;10.90;;
10041;SDS011;5061;49.068;12.058;2022-12-17T17:04:44;26.07;;;11.40;;
10041;SDS011;5061;49.068;12.058;2022-12-17T17:08:13;20.07;;;9.03;;
10041;SDS011;5061;49.068;12.058;2022-12-17T17:11:35;20.00;;;10.70;;
10041;SDS011;5061;49.068;12.058;2022-12-17T17:14:56;21.83;;;10.30;;
10041;SDS011;5061;49.068;12.058;2022-12-17T17:18:16;15.43;;;8.07;;
10041;SDS011;5061;49.068;12.058;2022-12-17T17:21:38;20.37;;;9.57;;
10041;SDS011;5061;49.068;12.058;2022-12-17T17:25:07;13.60;;;8.33;;
10041;SDS011;5061;49.068;12.058;2022-12-17T17:28:28;23.23;;;9.43;;
10041;SDS011;5061;49.068;12.058;2022-12-17T17:31:48;17.47;;;9.33;;
10041;SDS011;5061;49.068;12.058;2022-12-17T17:35:09;17.30;;;9.30;;
10041;SDS011;5061;49.068;12.058;2022-12-17T17:38:31;21.00;;;10.10;;
10041;SDS011;5061;49.068;12.058;2022-12-17T17:41:53;19.87;;;9.70;;
10041;SDS011;5061;49.068;12.058;2022-12-17T17:45:14;21.97;;;10.23;;
10041;SDS011;5061;49.068;12.058;2022-12-17T17:48:34;17.70;;;9.90;;
10041;SDS011;5061;49.068;12.058;2022-12-17T17:51:55;18.40;;;9.73;;
10041;SDS011;5061;49.068;12.058;2022-12-17T17:55:16;15.93;;;7.60;;
10041;SDS011;5061;49.068;12.058;2022-12-17T17:58:37;15.33;;;7.67;;
10041;SDS011;5061;49.068;12.058;2022-12-17T18:01:57;17.93;;;9.10;;
10041;SDS011;5061;49.068;12.058;2022-12-17T18:05:18;17.67;;;9.63;;
10041;SDS011;5061;49.068;12.058;2022-12-17T18:08:39;21.17;;;9.40;;
10041;SDS011;5061;49.068;12.058;2022-12-17T18:12:03;19.50;;;9.10;;
10041;SDS011;5061;49.068;12.058;2022-12-17T18:15:43;17.73;;;9.00;;
10041;SDS011;5061;49.068;12.058;2022-12-17T18:19:08;15.33;;;7.70;;
10041;SDS011;5061;49.068;12.058;2022-12-17T18:22:33;22.27;;;10.70;;
10041;SDS011;5061;49.068;12.058;2022-12-17T18:25:54;26.80;;;13.67;;
10041;SDS011;5061;49.068;12.058;2022-12-17T18:29:15;22.23;;;11.47;;
10041;SDS011;5061;49.068;12.058;2022-12-17T18:32:38;36.73;;;15.40;;
10041;SDS011;5061;49.068;12.058;2022-12-17T18:35:59;35.37;;;15.33;;
10041;SDS011;5061;49.068;12.058;2022-12-17T18:39:21;45.93;;;16.97;;
10041;SDS011;5061;49.068;12.058;2022-12-17T18:42:43;41.43;;;18.37;;
10041;SDS011;5061;49.068;12.058;2022-12-17T18:46:22;48.50;;;20.93;;
10041;SDS011;5061;49.068;12.058;2022-12-17T18:49:42;50.40;;;20.67;;
10041;SDS011;5061;49.068;12.058;2022-12-17T18:53:04;43.60;;;19.50;;
10041;SDS011;5061;49.068;12.058;2022-12-17T18:56:25;41.63;;;17.93;;
10041;SDS011;5061;49.068;12.058;2022-12-17T18:59:46;44.73;;;19.80;;
10041;SDS011;5061;49.068;12.058;2022-12-17T19:03:07;43.57;;;19.43;;
10041;SDS011;5061;49.068;12.058;2022-12-17T19:06:29;45.90;;;21.17;;
10041;SDS011;5061;49.068;12.058;2022-12-17T19:09:51;43.67;;;19.23;;
10041;SDS011;5061;49.068;12.058;2022-12-17T19:13:11;49.13;;;18.80;;
10041;SDS011;5061;49.068;12.058;2022-12-17T19:16:32;48.30;;;20.50;;
10041;SDS011;5061;49.068;12.058;2022-12-17T19:19:52;48.10;;;21.10;;
10041;SDS011;5061;49.068;12.058;2022-12-17T19:23:13;50.47;;;21.40;;
10041;SDS011;5061;49.068;12.058;2022-12-17T19:26:34;44.23;;;20.03;;
10041;SDS011;5061;49.068;12.058;2022-12-17T19:29:54;45.97;;;19.43;;
10041;SDS011;5061;49.068;12.058;2022-12-17T19:33:16;47.27;;;21.07;;
10041;SDS011;5061;49.068;12.058;2022-12-17T19:36:36;52.00;;;23.20;;
10041;SDS011;5061;49.068;12.058;2022-12-17T19:39:57;49.77;;;17.77;;
10041;SDS011;5061;49.068;12.058;2022-12-17T19:43:18;51.73;;;22.30;;
10041;SDS011;5061;49.068;12.058;2022-12-17T19:46:39;59.87;;;19.10;;
10041;SDS011;5061;49.068;12.058;2022-12-17T19:50:00;54.73;;;19.60;;
10041;SDS011;5061;49.068;12.058;2022-12-17T19:53:20;47.87;;;20.13;;
10041;SDS011;5061;49.068;12.058;2022-12-17T19:56:42;67.93;;;22.47;;
10041;SDS011;5061;49.068;12.058;2022-12-17T20:00:04;56.67;;;21.80;;
10041;SDS011;5061;49.068;12.058;2022-12-17T20:03:25;57.57;;;21.37;;
10041;SDS011;5061;49.068;12.058;2022-12-17T20:06:45;56.87;;;22.13;;
10041;SDS011;5061;49.068;12.058;2022-12-17T20:10:06;46.87;;;19.73;;
10041;SDS011;5061;49.068;12.058;2022-12-17T20:13:27;50.40;;;19.13;;
10041;SDS011;5061;49.068;12.058;2022-12-17T20:16:49;49.83;;;19.63;;
10041;SDS011;5061;49.068;12.058;2022-12-17T20:20:11;47.90;;;19.13;;
10041;SDS011;5061;49.068;12.058;2022-12-17T20:23:31;44.60;;;17.93;;
10041;SDS011;5061;49.068;12.058;2022-12-17T20:26:52;56.87;;;18.83;;
10041;SDS011;5061;49.068;12.058;2022-12-17T20:30:13;45.90;;;17.43;;
10041;SDS011;5061;49.068;12.058;2022-12-17T20:33:34;53.43;;;19.00;;
10041;SDS011;5061;49.068;12.058;2022-12-17T20:36:55;61.57;;;21.40;;
10041;SDS011;5061;49.068;12.058;2022-12-17T20:40:16;55.20;;;22.10;;
10041;SDS011;5061;49.068;12.058;2022-12-17T20:43:37;50.60;;;19.80;;
10041;SDS011;5061;49.068;12.058;2022-12-17T20:46:58;59.77;;;22.37;;
10041;SDS011;5061;49.068;12.058;2022-12-17T20:50:20;47.83;;;19.10;;
10041;SDS011;5061;49.068;12.058;2022-12-17T20:53:40;60.27;;;21.13;;
10041;SDS011;5061;49.068;12.058;2022-12-17T20:57:02;55.23;;;22.13;;
10041;SDS011;5061;49.068;12.058;2022-12-17T21:00:23;63.30;;;23.17;;
10041;SDS011;5061;49.068;12.058;2022-12-17T21:03:44;67.67;;;23.27;;
10041;SDS011;5061;49.068;12.058;2022-12-17T21:07:05;60.63;;;22.40;;
10041;SDS011;5061;49.068;12.058;2022-12-17T21:10:28;49.10;;;19.70;;
10041;SDS011;5061;49.068;12.058;2022-12-17T21:13:49;52.70;;;22.33;;
10041;SDS011;5061;49.068;12.058;2022-12-17T21:17:10;46.00;;;20.57;;
10041;SDS011;5061;49.068;12.058;2022-12-17T21:20:31;48.83;;;20.77;;
10041;SDS011;5061;49.068;12.058;2022-12-17T21:23:51;56.63;;;21.87;;
10041;SDS011;5061;49.068;12.058;2022-12-17T21:27:12;63.10;;;25.03;;
10041;SDS011;5061;49.068;12.058;2022-12-17T21:30:34;58.63;;;22.87;;
10041;SDS011;5061;49.068;12.058;2022-12-17T21:33:57;55.10;;;22.30;;
10041;SDS011;5061;49.068;12.058;2022-12-17T21:37:19;53.07;;;21.83;;
10041;SDS011;5061;49.068;12.058;2022-12-17T21:40:40;67.70;;;24.43;;
10041;SDS011;5061;49.068;12.058;2022-12-17T21:44:03;57.60;;;23.80;;
10041;SDS011;5061;49.068;12.058;2022-12-17T21:47:25;55.83;;;21.93;;
10041;SDS011;5061;49.068;12.058;2022-12-17T21:50:46;62.17;;;25.43;;
10041;SDS011;5061;49.068;12.058;2022-12-17T21:54:08;52.20;;;22.47;;
10041;SDS011;5061;49.068;12.058;2022-12-17T21:57:29;42.43;;;18.47;;